»·PEaware :: AMMO20 KFMN-KABQ

AMMO20 :: KFMN-KABQ

FLIGHT INFORMATION

Flight Status: Arrived
Operator: Unknown
More flights by this operator :: More flights under this callsign
Pilot: Jon H. (22211)
Aircraft: BEECH AIRCRAFT T-6A TEXAN
(TEX2)
More flights by this aircraft type
Origin: KFMN Four Corners Regl
United States
Destination: KABQ Albuquerque Intl Sunport
United States
More flights between these airports :: More routes between these airports
Route: RSK V187 TANER CURLY3
File this flight plan on PilotEdge
Remarks:
Altitude:
(Current/Filed)
13,000ft
Speed:
(Current/Filed)
250kts
Departed: 12-Jun-20 12:20 PM
Arrived: 12-Jun-20 12:56 PM
Distance/Time
Traveled:
129nm/0:36
Distance/Time
To Go:
Arrived

Flight Plot

Page will automatically refresh every two minutes.

Flight plan parsing failed; only flown route is shown


Map Options




Map Legend


Flown Route
Filed Route
Departure Airport
Arrival Airport
Navaid (VOR, NDB)
Fix

Horizontal Profiles

Position Reports

Time Latitude Longitude Heading Altitude Ground
Speed
12-Jun-20 12:05 36.346971 -97.909990 216 1279ft 0kts
12-Jun-20 12:06 36.739913 -108.226312 90 5507ft 0kts
12-Jun-20 12:07 36.739913 -108.226312 90 5507ft 0kts
12-Jun-20 12:08 36.739913 -108.226312 90 5507ft 0kts
12-Jun-20 12:09 36.739913 -108.226312 90 5507ft 0kts
12-Jun-20 12:10 36.739913 -108.226312 90 5507ft 0kts
12-Jun-20 12:11 36.739913 -108.226312 90 5507ft 0kts
12-Jun-20 12:12 36.739913 -108.226312 90 5507ft 0kts
12-Jun-20 12:13 36.739913 -108.226312 90 5507ft 0kts
12-Jun-20 12:14 36.739913 -108.226312 90 5507ft 0kts
12-Jun-20 12:15 36.740477 -108.226264 341 5507ft 4kts
12-Jun-20 12:16 36.740525 -108.230978 269 5507ft 3kts
12-Jun-20 12:17 36.740524 -108.231041 269 5507ft 1kts
12-Jun-20 12:18 36.740351 -108.238312 268 5507ft 12kts
12-Jun-20 12:19 36.741228 -108.234251 87 5508ft 102kts
12-Jun-20 12:20 36.758677 -108.192393 35 8264ft 162kts
12-Jun-20 12:22 36.757867 -108.132923 105 11222ft 197kts
12-Jun-20 12:23 36.721493 -108.075841 150 12910ft 250kts
12-Jun-20 12:24 36.658014 -108.022380 147 12860ft 285kts
12-Jun-20 12:25 36.595282 -107.973587 151 12567ft 262kts
12-Jun-20 12:26 36.534110 -107.922062 144 12606ft 275kts
12-Jun-20 12:27 36.471712 -107.869905 149 12814ft 272kts
12-Jun-20 12:28 36.409194 -107.814969 146 12695ft 273kts
12-Jun-20 12:29 36.343950 -107.765910 150 12721ft 272kts
12-Jun-20 12:30 36.281980 -107.728031 150 12797ft 270kts
12-Jun-20 12:31 36.217696 -107.678518 148 12788ft 273kts
12-Jun-20 12:32 36.154735 -107.625618 146 12799ft 274kts
12-Jun-20 12:33 36.091215 -107.573466 146 12777ft 276kts
12-Jun-20 12:34 36.028400 -107.520065 145 12862ft 272kts
12-Jun-20 12:35 35.965288 -107.465064 145 12562ft 278kts
12-Jun-20 12:36 35.901143 -107.414143 149 12669ft 274kts
12-Jun-20 12:37 35.833273 -107.370045 154 12587ft 275kts
12-Jun-20 12:38 35.764802 -107.329573 155 12756ft 271kts
12-Jun-20 12:39 35.695805 -107.289405 153 12695ft 274kts
12-Jun-20 12:40 35.631290 -107.238963 146 12584ft 277kts
12-Jun-20 12:40 35.576604 -107.198442 150 12569ft 275kts
12-Jun-20 12:42 35.499664 -107.143569 147 12493ft 278kts
12-Jun-20 12:42 35.445040 -107.103144 151 12656ft 272kts
12-Jun-20 12:43 35.379328 -107.056742 149 12639ft 275kts
12-Jun-20 12:45 35.303147 -106.999614 148 12536ft 278kts
12-Jun-20 12:45 35.241329 -106.987691 182 11313ft 273kts
12-Jun-20 12:46 35.165912 -106.990116 184 9387ft 268kts
12-Jun-20 12:48 35.082703 -106.969285 147 7245ft 259kts
12-Jun-20 12:48 35.058445 -106.916624 110 7274ft 195kts
12-Jun-20 12:49 35.048931 -106.848918 78 7204ft 212kts
12-Jun-20 12:50 35.044294 -106.782953 88 7104ft 140kts
12-Jun-20 12:51 35.043964 -106.737510 87 6828ft 128kts
12-Jun-20 12:52 35.044061 -106.693990 87 6173ft 134kts
12-Jun-20 12:53 35.044259 -106.648906 87 5782ft 123kts
12-Jun-20 12:54 35.044253 -106.608524 90 5316ft 72kts
12-Jun-20 12:55 35.044268 -106.599129 83 5319ft 20kts
12-Jun-20 12:56 35.045842 -106.593479 89 5325ft 18kts
12-Jun-20 12:57 35.045786 -106.585710 89 5332ft 21kts

Navigation Log

Ident Type
Flight plan parsing failed, navigation log unavailable